Time;durP1;ratioP1;P1;durP2;ratioP2;P2;SDS_P1;SDS_P2;PMS_P1;PMS_P2;Temp;Humidity;BMP_temperature;BMP_pressure;BME280_temperature;BME280_humidity;BME280_pressure;Samples;Min_cycle;Max_cycle;Signal;HPM_P1;HPM_P2
2021/12/25 00:07:33;;;;;;;5.67;3.33;;;;;;;21.25;nan;99192.75;20403778;28;102655;-58
2021/12/25 00:17:34;;;;;;;4.85;3.50;;;;;;;21.22;nan;99188.63;20411028;28;101371;-58
2021/12/25 00:38:08;;;;;;;4.88;3.42;;;;;;;21.18;nan;99202.22;20406587;28;98240;-58
2021/12/25 00:48:09;;;;;;;4.50;3.58;;;;;;;21.15;nan;99195.44;20419154;28;101761;-59
2021/12/25 00:58:11;;;;;;;4.55;3.50;;;;;;;21.13;nan;99194.78;20416567;28;106798;-59
2021/12/25 01:08:13;;;;;;;3.87;3.10;;;;;;;21.09;nan;99212.69;20392863;28;103047;-59
2021/12/25 01:49:16;;;;;;;3.50;3.00;;;;;;;20.95;nan;99247.38;20410401;28;102092;-58
2021/12/25 01:59:17;;;;;;;4.53;3.10;;;;;;;20.94;nan;99243.88;20403311;28;102306;-58
2021/12/25 02:09:17;;;;;;;5.38;3.20;;;;;;;20.92;nan;99243.22;20404583;28;99440;-58
2021/12/25 02:19:46;;;;;;;4.70;3.17;;;;;;;20.88;nan;99241.84;20403239;28;97502;-58
2021/12/25 02:29:40;;;;;;;4.00;3.08;;;;;;;20.86;nan;99243.81;20404104;28;101630;-59
2021/12/25 02:39:42;;;;;;;4.40;3.20;;;;;;;20.83;nan;99241.44;20412555;28;101868;-58
2021/12/25 02:49:52;;;;;;;5.28;2.92;;;;;;;20.81;nan;99243.38;20419774;28;98849;-58
2021/12/25 02:59:52;;;;;;;3.97;2.90;;;;;;;20.79;nan;99240.09;20417347;28;100789;-58
2021/12/25 03:09:55;;;;;;;3.85;3.03;;;;;;;20.78;nan;99230.53;20416233;28;99342;-58
2021/12/25 03:19:56;;;;;;;3.30;2.87;;;;;;;20.77;nan;99229.69;20412057;28;101866;-57
2021/12/25 03:29:56;;;;;;;3.58;2.80;;;;;;;20.75;nan;99210.63;20401709;28;102237;-58
2021/12/25 03:39:57;;;;;;;3.45;2.58;;;;;;;20.71;nan;99219.72;20402849;28;98020;-58
2021/12/25 04:00:27;;;;;;;3.13;2.50;;;;;;;20.68;nan;99256.00;20422647;28;99206;-56
2021/12/25 04:10:33;;;;;;;3.53;2.47;;;;;;;20.66;nan;99266.69;20392291;28;98447;-58
2021/12/25 04:20:35;;;;;;;2.75;2.53;;;;;;;20.66;nan;99269.31;20393129;28;100013;-58
2021/12/25 05:11:38;;;;;;;3.17;2.38;;;;;;;20.66;nan;99263.22;20394710;28;97755;-58
2021/12/25 05:21:40;;;;;;;2.95;2.20;;;;;;;20.74;nan;99264.19;20399016;28;100651;-58
2021/12/25 05:31:42;;;;;;;3.25;2.60;;;;;;;20.83;nan;99272.22;20397139;28;97752;-56
2021/12/25 05:41:43;;;;;;;2.78;2.45;;;;;;;20.92;nan;99273.97;20393053;28;100633;-57
2021/12/25 05:51:44;;;;;;;4.10;2.85;;;;;;;20.96;nan;99262.19;20393582;28;98879;-58
2021/12/25 06:01:44;;;;;;;2.60;2.40;;;;;;;21.03;nan;99273.78;20391574;28;99976;-58
2021/12/25 06:11:45;;;;;;;3.75;2.50;;;;;;;21.10;nan;99274.88;20389878;28;101726;-58
2021/12/25 06:21:46;;;;;;;2.92;2.55;;;;;;;21.15;nan;99295.47;20385091;28;102605;-59
2021/12/25 06:31:47;;;;;;;2.75;2.05;;;;;;;21.22;nan;99298.38;20385134;28;101689;-59
2021/12/25 06:41:49;;;;;;;2.38;2.17;;;;;;;21.30;nan;99324.81;20389061;28;99467;-59
2021/12/25 06:51:50;;;;;;;4.00;2.20;;;;;;;21.40;nan;99332.66;20382313;28;102091;-59
2021/12/25 07:01:51;;;;;;;5.55;3.38;;;;;;;21.50;nan;99351.88;20399199;28;106152;-59
2021/12/25 07:11:53;;;;;;;8.65;3.75;;;;;;;21.56;nan;99358.38;20420894;28;102186;-57
2021/12/25 07:21:55;;;;;;;8.48;5.20;;;;;;;21.59;nan;99351.03;20393536;28;101961;-58
2021/12/25 07:31:58;;;;;;;15.83;5.20;;;;;;;21.65;nan;99364.59;20406910;28;102839;-58
2021/12/25 07:42:01;;;;;;;7.97;4.80;;;;;;;21.68;nan;99366.91;20404029;28;98153;-58
2021/12/25 07:52:02;;;;;;;9.17;5.23;;;;;;;20.60;nan;99378.56;20413248;28;97968;-59
2021/12/25 08:02:02;;;;;;;9.88;5.72;;;;;;;20.89;nan;99377.69;20406341;28;98457;-57
2021/12/25 08:12:03;;;;;;;13.73;5.15;;;;;;;21.16;nan;99381.38;20405576;28;100954;-56
2021/12/25 08:22:05;;;;;;;9.73;5.63;;;;;;;21.46;nan;99378.63;20401438;28;101982;-57
2021/12/25 08:32:06;;;;;;;12.10;6.40;;;;;;;21.71;nan;99382.44;20408985;28;102111;-61
2021/12/25 08:42:09;;;;;;;16.98;6.90;;;;;;;21.94;nan;99374.16;20400657;28;99374;-61
2021/12/25 08:52:15;;;;;;;8.43;6.10;;;;;;;22.11;nan;99356.69;20418480;28;102560;-58
2021/12/25 09:02:17;;;;;;;8.95;6.00;;;;;;;22.27;nan;99353.38;20421450;28;101323;-57
2021/12/25 09:12:20;;;;;;;11.60;6.13;;;;;;;22.38;nan;99348.69;20409705;28;98143;-58
2021/12/25 09:22:21;;;;;;;15.00;6.13;;;;;;;22.49;nan;99349.47;20399876;28;103241;-57
2021/12/25 09:32:25;;;;;;;12.77;6.82;;;;;;;22.51;nan;99340.41;20410230;28;100947;-57
2021/12/25 09:42:27;;;;;;;13.05;7.65;;;;;;;22.36;nan;99326.06;20416982;28;98228;-57
2021/12/25 09:52:27;;;;;;;10.73;7.70;;;;;;;22.21;nan;99331.88;20411353;28;99163;-57
2021/12/25 10:02:44;;;;;;;14.25;6.82;;;;;;;22.32;nan;99317.63;20409806;28;101337;-58
2021/12/25 10:12:48;;;;;;;10.05;6.78;;;;;;;22.38;nan;99319.69;20411060;28;101950;-56
2021/12/25 10:22:52;;;;;;;13.10;6.53;;;;;;;22.46;nan;99318.09;20403004;28;103549;-57
2021/12/25 10:32:53;;;;;;;10.13;6.72;;;;;;;22.35;nan;99324.41;20404028;28;102648;-57
2021/12/25 10:42:57;;;;;;;11.77;6.72;;;;;;;22.12;nan;99316.13;20410322;28;101830;-57
2021/12/25 10:52:58;;;;;;;9.20;6.40;;;;;;;22.10;nan;99320.75;20412636;28;97831;-57
2021/12/25 11:03:02;;;;;;;7.20;5.88;;;;;;;22.05;nan;99294.84;20418058;28;101362;-57
2021/12/25 11:13:15;;;;;;;8.63;5.50;;;;;;;22.05;nan;99281.66;20433368;28;102796;-57
2021/12/25 11:23:16;;;;;;;8.95;5.50;;;;;;;22.06;nan;99278.03;20429133;28;102568;-57
2021/12/25 11:33:18;;;;;;;24.55;8.10;;;;;;;22.12;nan;99256.34;20416233;28;102453;-57
2021/12/25 11:43:41;;;;;;;22.20;10.43;;;;;;;22.16;nan;99244.50;20411512;28;100648;-57
2021/12/25 11:54:30;;;;;;;25.02;9.75;;;;;;;22.23;nan;99231.53;20427061;28;102990;-59
2021/12/25 12:04:14;;;;;;;16.23;9.27;;;;;;;22.27;nan;99222.34;20440957;28;99663;-59
2021/12/25 12:14:25;;;;;;;19.30;8.75;;;;;;;22.30;nan;99231.75;20430552;28;98012;-62
2021/12/25 12:34:38;;;;;;;14.07;7.50;;;;;;;22.35;nan;99234.75;20410537;28;101711;-60
2021/12/25 12:44:39;;;;;;;11.63;6.88;;;;;;;22.36;nan;99231.13;20405881;28;100760;-59
2021/12/25 12:54:44;;;;;;;11.73;6.80;;;;;;;22.68;nan;99227.09;20405022;28;101728;-61
2021/12/25 13:04:55;;;;;;;13.35;5.93;;;;;;;22.79;nan;99223.31;20424580;28;102319;-59
2021/12/25 13:15:03;;;;;;;10.35;5.30;;;;;;;22.82;nan;99221.19;20426961;28;98459;-57
2021/12/25 13:25:10;;;;;;;12.82;7.35;;;;;;;22.29;nan;99199.28;20437197;28;98912;-57
2021/12/25 13:35:20;;;;;;;11.13;7.30;;;;;;;22.21;nan;99205.31;20411621;28;101915;-57
2021/12/25 13:45:22;;;;;;;10.10;6.07;;;;;;;22.47;nan;99208.97;20425796;28;98225;-57
2021/12/25 13:55:24;;;;;;;13.05;6.00;;;;;;;22.63;nan;99211.72;20423745;28;99082;-57
2021/12/25 14:05:28;;;;;;;11.13;5.80;;;;;;;22.72;nan;99199.38;20419449;28;98942;-58
2021/12/25 14:15:33;;;;;;;8.38;5.63;;;;;;;22.82;nan;99209.81;20418344;28;98842;-58
2021/12/25 14:25:38;;;;;;;7.47;5.40;;;;;;;22.86;nan;99241.03;20419897;28;97979;-58
2021/12/25 14:35:40;;;;;;;9.10;6.10;;;;;;;22.89;nan;99255.72;20417945;28;101797;-58
2021/12/25 14:45:52;;;;;;;8.50;5.63;;;;;;;22.92;nan;99265.94;20415678;28;98085;-58
2021/12/25 14:55:56;;;;;;;15.77;6.30;;;;;;;22.94;nan;99269.25;20416512;28;98749;-58
2021/12/25 15:05:57;;;;;;;9.65;5.80;;;;;;;22.94;nan;99273.72;20413430;28;98928;-58
2021/12/25 15:15:59;;;;;;;8.60;5.45;;;;;;;22.97;nan;99262.84;20417211;28;102122;-59
2021/12/25 15:26:19;;;;;;;9.33;5.57;;;;;;;23.12;nan;99289.47;20413502;28;102427;-59
2021/12/25 15:36:21;;;;;;;12.95;5.95;;;;;;;23.14;nan;99311.25;20428057;28;104611;-60
2021/12/25 15:46:22;;;;;;;11.77;6.27;;;;;;;23.23;nan;99336.78;20407242;28;101373;-58
2021/12/25 15:56:24;;;;;;;15.02;7.32;;;;;;;23.10;nan;99355.63;20406632;28;99661;-60
2021/12/25 16:06:25;;;;;;;15.25;6.53;;;;;;;23.12;nan;99374.81;20396034;28;102705;-60
2021/12/25 16:16:30;;;;;;;13.40;5.47;;;;;;;23.13;nan;99391.47;20407245;28;102258;-61
2021/12/25 16:26:34;;;;;;;18.00;6.07;;;;;;;23.04;nan;99406.44;20405969;28;101539;-59
2021/12/25 16:36:36;;;;;;;18.63;5.97;;;;;;;23.01;nan;99410.22;20378095;28;101860;-59
2021/12/25 16:46:38;;;;;;;12.37;5.40;;;;;;;22.93;nan;99414.63;20379234;28;98803;-58
2021/12/25 16:56:43;;;;;;;11.50;5.40;;;;;;;22.85;nan;99420.63;20384785;28;102277;-60
2021/12/25 17:06:44;;;;;;;8.18;5.10;;;;;;;22.80;nan;99402.66;20384573;28;102246;-59
2021/12/25 17:16:46;;;;;;;8.02;5.03;;;;;;;22.79;nan;99410.69;20394216;28;102206;-59
2021/12/25 17:26:48;;;;;;;17.20;5.07;;;;;;;22.76;nan;99430.31;20430067;28;99992;-59
2021/12/25 17:36:50;;;;;;;9.47;4.90;;;;;;;22.69;nan;99453.00;20389437;28;99020;-58
2021/12/25 17:46:52;;;;;;;7.90;4.30;;;;;;;22.69;nan;99488.16;20394971;27;102958;-59
2021/12/25 17:56:55;;;;;;;7.30;4.60;;;;;;;22.66;nan;99512.19;20382016;28;101495;-59
2021/12/25 18:06:56;;;;;;;6.82;4.05;;;;;;;22.61;nan;99525.00;20384180;28;102525;-60
2021/12/25 18:16:58;;;;;;;5.90;3.97;;;;;;;22.62;nan;99558.34;20385178;28;100979;-59
2021/12/25 18:26:59;;;;;;;6.75;3.90;;;;;;;22.66;nan;99567.59;20381710;28;105107;-60
2021/12/25 18:37:00;;;;;;;9.00;5.57;;;;;;;22.53;nan;99593.50;20388998;28;101142;-59
2021/12/25 18:47:02;;;;;;;6.70;4.85;;;;;;;22.52;nan;99595.34;20383448;28;98936;-60
2021/12/25 18:57:03;;;;;;;7.35;4.78;;;;;;;22.56;nan;99614.34;20384433;28;99678;-59
2021/12/25 19:07:08;;;;;;;9.45;4.57;;;;;;;22.56;nan;99616.97;20386671;28;102589;-61
2021/12/25 19:17:10;;;;;;;5.88;4.35;;;;;;;22.55;nan;99613.50;20399903;28;98198;-59
2021/12/25 19:27:12;;;;;;;5.20;3.90;;;;;;;22.53;nan;99633.94;20415850;28;103570;-59
2021/12/25 19:37:12;;;;;;;6.80;4.38;;;;;;;22.51;nan;99650.91;20412685;28;103020;-59
2021/12/25 19:47:13;;;;;;;5.78;3.90;;;;;;;22.48;nan;99657.25;20414190;28;102092;-58
2021/12/25 19:57:14;;;;;;;5.40;3.63;;;;;;;22.45;nan;99652.28;20438232;28;100375;-60
2021/12/25 20:07:15;;;;;;;6.72;3.95;;;;;;;22.50;nan;99663.22;20410272;28;99635;-59
2021/12/25 20:17:16;;;;;;;15.68;4.80;;;;;;;22.51;nan;99667.53;20413385;28;97987;-60
2021/12/25 20:27:17;;;;;;;12.90;4.70;;;;;;;22.47;nan;99682.00;20393459;28;102025;-60
2021/12/25 20:37:17;;;;;;;11.02;4.30;;;;;;;22.35;nan;99677.81;20411724;28;97602;-59
2021/12/25 20:47:20;;;;;;;8.25;3.92;;;;;;;22.07;nan;99664.59;20426149;28;99729;-60
2021/12/25 20:57:20;;;;;;;20.07;4.20;;;;;;;22.00;nan;99677.50;20406972;27;98067;-58
2021/12/25 21:07:21;;;;;;;8.32;3.95;;;;;;;21.93;nan;99681.69;20410307;28;102609;-59
2021/12/25 21:17:22;;;;;;;6.22;3.63;;;;;;;21.86;nan;99697.25;20405172;28;102230;-59
2021/12/25 21:27:23;;;;;;;6.53;3.75;;;;;;;21.78;nan;99722.63;20402646;28;98396;-60
2021/12/25 21:37:24;;;;;;;6.18;3.13;;;;;;;21.69;nan;99742.72;20407737;28;101650;-59
2021/12/25 21:47:25;;;;;;;5.90;3.22;;;;;;;21.63;nan;99754.66;20397544;28;98903;-59
2021/12/25 21:57:26;;;;;;;4.28;3.13;;;;;;;21.61;nan;99766.31;20428876;28;98273;-60
2021/12/25 22:07:28;;;;;;;6.95;3.40;;;;;;;21.55;nan;99778.19;20435118;28;99379;-59
2021/12/25 22:17:30;;;;;;;6.43;2.88;;;;;;;21.51;nan;99777.63;20399876;28;97778;-60
2021/12/25 22:27:32;;;;;;;5.43;2.65;;;;;;;21.47;nan;99778.88;20401129;28;99834;-59
2021/12/25 22:37:33;;;;;;;3.87;2.57;;;;;;;21.42;nan;99786.31;20398473;28;102392;-57
2021/12/25 22:47:34;;;;;;;4.22;2.75;;;;;;;21.38;nan;99783.13;20415334;28;104521;-59
2021/12/25 22:57:35;;;;;;;4.40;2.58;;;;;;;21.34;nan;99778.28;20412240;28;98060;-58
2021/12/25 23:07:37;;;;;;;5.38;2.72;;;;;;;21.30;nan;99779.50;20429992;28;98447;-59
2021/12/25 23:17:38;;;;;;;5.28;2.40;;;;;;;21.25;nan;99777.25;20403348;28;101788;-59
2021/12/25 23:27:42;;;;;;;4.10;2.58;;;;;;;21.21;nan;99799.56;20442376;28;102029;-59
2021/12/25 23:37:45;;;;;;;6.07;2.03;;;;;;;21.17;nan;99800.81;20396736;28;98062;-59
2021/12/25 23:47:46;;;;;;;4.23;2.20;;;;;;;21.11;nan;99813.50;20392663;28;101445;-60
2021/12/25 23:57:49;;;;;;;3.17;2.20;;;;;;;21.08;nan;99816.44;20392244;28;103739;-60
